createdAt,value
2023-05-17T00:01:56.066Z,101751.47
2023-05-17T00:04:25.247Z,101749.78
2023-05-17T00:06:54.389Z,101746.97
2023-05-17T00:09:23.500Z,101749.09
2023-05-17T00:11:52.684Z,101750.59
2023-05-17T00:14:21.810Z,101750.84
2023-05-17T00:16:52.570Z,101753.28
2023-05-17T00:19:21.812Z,101758.41
2023-05-17T00:21:51.207Z,101763.91
2023-05-17T00:24:20.325Z,101764.38
2023-05-17T00:26:49.410Z,101766.31
2023-05-17T00:29:18.554Z,101766.09
2023-05-17T00:31:47.640Z,101760.22
2023-05-17T00:34:18.158Z,101758.28
2023-05-17T00:36:47.310Z,101764.59
2023-05-17T00:39:16.532Z,101764.66
2023-05-17T00:41:45.929Z,101766.81
2023-05-17T00:44:15.074Z,101769.16
2023-05-17T00:46:46.778Z,101771.72
2023-05-17T00:49:17.251Z,101777.75
2023-05-17T00:51:46.922Z,101782.44
2023-05-17T00:54:16.911Z,101788.13
2023-05-17T00:56:46.829Z,101785.00
2023-05-17T00:59:16.844Z,101790.50
2023-05-17T01:01:46.353Z,101784.69
2023-05-17T01:04:16.970Z,101782.19
2023-05-17T01:06:46.628Z,101781.06
2023-05-17T01:09:16.510Z,101782.72
2023-05-17T01:11:55.814Z,101778.22
2023-05-17T01:14:39.472Z,101783.34
2023-05-17T01:17:15.173Z,101783.72
2023-05-17T01:20:06.235Z,101780.47
2023-05-17T01:22:46.170Z,101785.53
2023-05-17T01:25:40.914Z,101784.88
2023-05-17T01:28:13.256Z,101795.91
2023-05-17T01:30:45.888Z,101799.47
2023-05-17T01:33:15.351Z,101799.59
2023-05-17T01:35:44.754Z,101803.19
2023-05-17T01:38:14.038Z,101799.19
2023-05-17T01:40:47.948Z,101808.06
2023-05-17T01:43:23.997Z,101811.50
2023-05-17T01:46:00.971Z,101813.94
2023-05-17T01:48:36.212Z,101811.69
2023-05-17T01:51:06.752Z,101829.41
2023-05-17T01:53:40.850Z,101824.97
2023-05-17T01:56:14.570Z,101832.00
2023-05-17T01:58:48.574Z,101838.00
2023-05-17T02:01:19.914Z,101837.56
2023-05-17T02:03:50.552Z,101829.56
2023-05-17T02:06:19.710Z,101834.09
2023-05-17T02:08:48.940Z,101840.66
2023-05-17T02:11:18.147Z,101839.78
2023-05-17T02:13:48.615Z,101841.25
2023-05-17T02:16:17.732Z,101855.72
2023-05-17T02:18:46.906Z,101851.44
2023-05-17T02:21:18.444Z,101848.13
2023-05-17T02:23:47.557Z,101853.00
2023-05-17T02:26:16.742Z,101850.00
2023-05-17T02:28:47.291Z,101847.63
2023-05-17T02:31:16.456Z,101846.25
2023-05-17T02:33:46.019Z,101846.25
2023-05-17T02:36:15.132Z,101854.66
2023-05-17T02:38:44.260Z,101856.31
2023-05-17T02:41:14.774Z,101853.88
2023-05-17T02:43:43.907Z,101858.47
2023-05-17T02:46:14.415Z,101862.31
2023-05-17T02:48:43.563Z,101863.38
2023-05-17T02:51:12.973Z,101860.16
2023-05-17T02:53:42.125Z,101868.75
2023-05-17T02:56:12.915Z,101863.00
2023-05-17T02:58:42.505Z,101868.38
2023-05-17T03:01:13.120Z,101862.25
2023-05-17T03:03:42.670Z,101864.00
2023-05-17T03:06:12.228Z,101862.03
2023-05-17T03:08:44.088Z,101867.78
2023-05-17T03:11:13.432Z,101876.66
2023-05-17T03:13:42.837Z,101881.03
2023-05-17T03:16:15.534Z,101876.41
2023-05-17T03:18:44.960Z,101887.78
2023-05-17T03:21:15.278Z,101881.94
2023-05-17T03:23:44.529Z,101886.16
2023-05-17T03:26:14.763Z,101886.94
2023-05-17T03:28:49.117Z,101886.38
2023-05-17T03:31:20.995Z,101896.19
2023-05-17T03:33:50.320Z,101890.06
2023-05-17T03:36:20.880Z,101888.75
2023-05-17T03:38:50.052Z,101890.19
2023-05-17T03:41:20.035Z,101894.88
2023-05-17T03:43:49.357Z,101897.03
2023-05-17T03:46:20.558Z,101901.28
2023-05-17T03:48:52.282Z,101904.25
2023-05-17T03:51:21.628Z,101901.16
2023-05-17T03:53:58.388Z,101911.25
2023-05-17T03:56:28.385Z,101917.06
2023-05-17T03:58:57.548Z,101926.91
2023-05-17T04:01:28.201Z,101933.13
2023-05-17T04:03:57.499Z,101929.47
2023-05-17T04:06:26.881Z,101936.47
2023-05-17T04:08:56.176Z,101936.13
2023-05-17T04:11:27.159Z,101946.69
2023-05-17T04:13:56.879Z,101944.66
2023-05-17T04:16:28.173Z,101946.47
2023-05-17T04:18:57.931Z,101950.16
2023-05-17T04:21:27.210Z,101931.09
2023-05-17T04:23:58.159Z,101925.72
2023-05-17T04:26:28.496Z,101939.50
2023-05-17T04:28:57.706Z,101925.38
2023-05-17T04:31:28.285Z,101934.22
2023-05-17T04:33:57.551Z,101932.81
2023-05-17T04:36:27.516Z,101939.16
2023-05-17T04:38:57.584Z,101932.13
2023-05-17T04:41:30.159Z,101949.91
2023-05-17T04:44:00.683Z,101948.44
2023-05-17T04:46:37.247Z,101955.00
2023-05-17T04:49:07.385Z,101953.25
2023-05-17T04:51:36.876Z,101949.22
2023-05-17T04:54:08.676Z,101960.00
2023-05-17T04:56:38.927Z,101954.03
2023-05-17T04:59:13.834Z,101959.56
2023-05-17T05:01:44.916Z,101960.09
2023-05-17T05:04:14.637Z,101970.91
2023-05-17T05:06:46.178Z,101970.47
2023-05-17T05:09:15.880Z,101979.25
2023-05-17T05:11:45.444Z,101979.00
2023-05-17T05:14:14.911Z,101982.94
2023-05-17T05:16:45.959Z,101985.81
2023-05-17T05:19:15.434Z,101980.84
2023-05-17T05:21:46.800Z,101987.34
2023-05-17T05:24:16.606Z,101993.75
2023-05-17T05:26:46.420Z,101985.38
2023-05-17T05:29:16.909Z,101996.44
2023-05-17T05:31:47.505Z,101998.81
2023-05-17T05:34:17.969Z,102005.19
2023-05-17T05:36:47.286Z,102005.97
2023-05-17T05:39:18.040Z,102005.28
2023-05-17T05:41:47.428Z,102018.78
2023-05-17T05:44:16.686Z,102017.47
2023-05-17T05:46:47.356Z,102018.94
2023-05-17T05:49:17.033Z,102025.59
2023-05-17T05:51:46.305Z,102022.81
2023-05-17T05:54:16.203Z,102018.41
2023-05-17T05:56:45.447Z,102019.78
2023-05-17T05:59:16.385Z,102015.16
2023-05-17T06:01:47.821Z,102018.63
2023-05-17T06:04:17.018Z,102023.31
2023-05-17T06:06:47.308Z,102023.38
2023-05-17T06:09:16.558Z,102028.09
2023-05-17T06:11:45.718Z,102024.72
2023-05-17T06:14:14.922Z,102025.47
2023-05-17T06:16:44.125Z,102052.28
2023-05-17T06:19:14.743Z,102048.84
2023-05-17T06:21:44.053Z,102047.34
2023-05-17T06:24:13.227Z,102062.25
2023-05-17T06:26:43.946Z,102067.66
2023-05-17T06:29:13.093Z,102063.94
2023-05-17T06:31:42.275Z,102067.88
2023-05-17T06:34:12.872Z,102078.91
2023-05-17T06:36:42.111Z,102084.69
2023-05-17T06:39:11.248Z,102080.97
2023-05-17T06:41:40.421Z,102084.50
2023-05-17T06:44:09.659Z,102086.16
2023-05-17T06:46:38.884Z,102098.84
2023-05-17T06:49:08.210Z,102096.34
2023-05-17T06:51:38.829Z,102093.28
2023-05-17T06:54:08.034Z,102096.97
2023-05-17T06:56:37.217Z,102096.00
2023-05-17T06:59:06.459Z,102102.19
2023-05-17T07:01:35.618Z,102098.34
2023-05-17T07:04:04.970Z,102105.38
2023-05-17T07:06:34.339Z,102111.00
2023-05-17T07:09:04.997Z,102115.56
2023-05-17T07:11:34.425Z,102120.38
2023-05-17T07:14:03.722Z,102114.88
2023-05-17T07:16:32.956Z,102124.38
2023-05-17T07:19:02.228Z,102128.09
2023-05-17T07:21:31.968Z,102132.22
2023-05-17T07:24:01.323Z,102132.97
2023-05-17T07:26:31.852Z,102134.53
2023-05-17T07:29:01.126Z,102137.19
2023-05-17T07:31:30.291Z,102132.03
2023-05-17T07:33:59.524Z,102136.16
2023-05-17T07:36:30.676Z,102139.81
2023-05-17T07:39:00.218Z,102128.50
2023-05-17T07:41:31.630Z,102148.78
2023-05-17T07:44:00.794Z,102144.22
2023-05-17T07:46:30.002Z,102152.75
2023-05-17T07:48:59.304Z,102159.72
2023-05-17T07:51:28.548Z,102147.47
2023-05-17T07:53:57.727Z,102169.56
2023-05-17T07:56:26.914Z,102172.88
2023-05-17T07:58:57.716Z,102175.50
2023-05-17T08:01:27.558Z,102167.47
2023-05-17T08:03:56.874Z,102174.03
2023-05-17T08:06:26.478Z,102176.53
2023-05-17T08:08:55.815Z,102179.22
2023-05-17T08:11:25.574Z,102192.91
2023-05-17T08:13:56.189Z,102189.06
2023-05-17T08:16:25.431Z,102200.84
2023-05-17T08:18:54.770Z,102199.19
2023-05-17T08:21:24.505Z,102194.88
2023-05-17T08:23:53.652Z,102197.09
2023-05-17T08:26:22.844Z,102194.28
2023-05-17T08:28:52.107Z,102199.34
2023-05-17T08:31:22.723Z,102197.69
2023-05-17T08:33:52.012Z,102194.75
2023-05-17T08:36:21.721Z,102209.84
2023-05-17T08:38:51.471Z,102203.91
2023-05-17T08:41:21.401Z,102205.69
2023-05-17T08:43:51.984Z,102204.47
2023-05-17T08:46:24.123Z,102198.13
2023-05-17T08:48:56.093Z,102206.13
2023-05-17T08:51:27.076Z,102210.34
2023-05-17T08:53:56.490Z,102222.03
2023-05-17T08:56:26.926Z,102222.78
2023-05-17T08:58:58.306Z,102237.03
2023-05-17T09:01:32.984Z,102231.25
2023-05-17T09:04:02.403Z,102237.25
2023-05-17T09:06:33.132Z,102236.94
2023-05-17T09:09:02.601Z,102235.78
2023-05-17T09:11:33.731Z,102242.94
2023-05-17T09:14:04.784Z,102236.59
2023-05-17T09:16:37.752Z,102243.56
2023-05-17T09:19:08.864Z,102239.97
2023-05-17T09:21:38.668Z,102230.41
2023-05-17T09:24:08.817Z,102243.34
2023-05-17T09:26:42.210Z,102235.16
2023-05-17T09:29:12.416Z,102238.25
2023-05-17T09:31:44.028Z,102230.53
2023-05-17T09:34:13.547Z,102226.16
2023-05-17T09:36:44.999Z,102237.66
2023-05-17T09:39:16.193Z,102247.47
2023-05-17T09:41:48.013Z,102247.22
2023-05-17T09:44:18.113Z,102249.66
2023-05-17T09:46:49.789Z,102261.56
2023-05-17T09:49:19.556Z,102263.31
2023-05-17T09:51:49.834Z,102257.38
2023-05-17T09:54:19.429Z,102250.03
2023-05-17T09:56:55.700Z,102243.38
2023-05-17T09:59:29.034Z,102258.69
2023-05-17T10:02:00.500Z,102259.00
2023-05-17T10:04:31.859Z,102260.38
2023-05-17T10:07:02.245Z,102243.13
2023-05-17T10:09:35.585Z,102255.53
2023-05-17T10:12:08.018Z,102248.53
2023-05-17T10:14:38.495Z,102254.56
2023-05-17T10:17:09.538Z,102251.06
2023-05-17T10:19:39.393Z,102251.81
2023-05-17T10:22:21.799Z,102256.06
2023-05-17T10:24:53.269Z,102254.50
2023-05-17T10:27:22.680Z,102247.19
2023-05-17T10:29:53.006Z,102260.66
2023-05-17T10:32:27.130Z,102259.09
2023-05-17T10:35:10.178Z,102257.75
2023-05-17T10:37:42.412Z,102269.75
2023-05-17T10:40:13.805Z,102270.44
2023-05-17T10:42:46.232Z,102266.38
2023-05-17T10:45:15.775Z,102263.56
2023-05-17T10:47:46.819Z,102252.28
2023-05-17T10:50:22.245Z,102251.28
2023-05-17T10:52:52.456Z,102255.63
2023-05-17T10:55:23.039Z,102262.09
2023-05-17T10:58:17.032Z,102264.50
2023-05-17T11:00:48.414Z,102269.22
2023-05-17T11:03:22.552Z,102267.97
2023-05-17T11:06:23.339Z,102266.78
2023-05-17T11:09:09.037Z,102274.81
2023-05-17T11:11:38.304Z,102279.84
2023-05-17T11:14:11.783Z,102272.69
2023-05-17T11:16:41.047Z,102285.22
2023-05-17T11:19:12.972Z,102281.50
2023-05-17T11:21:49.413Z,102288.69
2023-05-17T11:24:26.839Z,102266.78
2023-05-17T11:27:00.241Z,102267.34
2023-05-17T11:29:31.625Z,102269.13
2023-05-17T11:32:06.127Z,102267.47
2023-05-17T11:34:36.979Z,102264.78
2023-05-17T11:37:11.945Z,102264.84
2023-05-17T11:40:05.785Z,102263.06
2023-05-17T11:42:35.753Z,102282.13
2023-05-17T11:45:05.714Z,102281.72
2023-05-17T11:47:35.456Z,102275.75
2023-05-17T11:50:07.728Z,102270.03
2023-05-17T11:52:37.482Z,102280.78
2023-05-17T11:55:08.552Z,102277.72
2023-05-17T11:57:40.608Z,102270.91
2023-05-17T12:00:11.328Z,102268.00
2023-05-17T12:02:43.390Z,102273.50
2023-05-17T12:05:20.476Z,102270.34
2023-05-17T12:07:50.311Z,102276.22
2023-05-17T12:10:19.791Z,102274.88
2023-05-17T12:12:48.977Z,102273.16
2023-05-17T12:15:20.737Z,102285.16
2023-05-17T12:17:51.936Z,102289.75
2023-05-17T12:20:22.870Z,102284.78
2023-05-17T12:22:55.536Z,102279.38
2023-05-17T12:25:27.974Z,102283.69
2023-05-17T12:28:14.859Z,102278.31
2023-05-17T12:30:44.551Z,102271.47
2023-05-17T12:33:15.000Z,102287.38
2023-05-17T12:35:46.154Z,102272.09
2023-05-17T12:38:15.487Z,102278.88
2023-05-17T12:40:45.097Z,102274.72
2023-05-17T12:43:14.342Z,102287.31
2023-05-17T12:45:43.594Z,102265.66
2023-05-17T12:48:12.908Z,102268.84
2023-05-17T12:50:46.243Z,102283.72
2023-05-17T12:53:15.404Z,102286.03
2023-05-17T12:55:44.611Z,102291.16
2023-05-17T12:58:13.830Z,102290.41
2023-05-17T13:00:56.917Z,102307.47
2023-05-17T13:03:26.440Z,102304.19
2023-05-17T13:06:09.513Z,102294.13
2023-05-17T13:08:38.779Z,102286.31
2023-05-17T13:11:09.504Z,102299.94
2023-05-17T13:13:39.089Z,102299.97
2023-05-17T13:16:09.011Z,102306.72
2023-05-17T13:18:52.052Z,102316.69
2023-05-17T13:21:22.829Z,102310.25
2023-05-17T13:23:52.410Z,102318.28
2023-05-17T13:26:22.206Z,102305.63
2023-05-17T13:28:51.558Z,102312.22
2023-05-17T13:31:20.945Z,102306.88
2023-05-17T13:33:50.329Z,102307.53
2023-05-17T13:36:19.641Z,102306.03
2023-05-17T13:38:50.245Z,102308.69
2023-05-17T13:41:19.438Z,102309.66
2023-05-17T13:43:48.867Z,102309.31
2023-05-17T13:46:18.071Z,102307.63
2023-05-17T13:48:47.316Z,102317.50
2023-05-17T13:51:16.659Z,102317.31
2023-05-17T13:53:46.135Z,102329.00
2023-05-17T13:56:16.670Z,102326.69
2023-05-17T13:58:46.106Z,102311.59
2023-05-17T14:01:15.659Z,102317.06
2023-05-17T14:03:44.946Z,102318.56
2023-05-17T14:06:14.254Z,102327.75
2023-05-17T14:08:47.260Z,102324.25
2023-05-17T14:11:17.893Z,102326.03
2023-05-17T14:13:47.020Z,102320.59
2023-05-17T14:16:16.519Z,102331.63
2023-05-17T14:18:46.325Z,102336.00
2023-05-17T14:21:15.691Z,102345.97
2023-05-17T14:23:44.900Z,102342.66
2023-05-17T14:26:14.094Z,102335.31
2023-05-17T14:28:44.681Z,102340.50
2023-05-17T14:31:13.879Z,102334.72
2023-05-17T14:33:43.093Z,102342.03
2023-05-17T14:36:13.861Z,102344.47
2023-05-17T14:38:43.464Z,102345.81
2023-05-17T14:41:12.560Z,102351.94
2023-05-17T14:43:43.054Z,102354.72
2023-05-17T14:46:12.193Z,102352.88
2023-05-17T14:48:41.369Z,102351.31
2023-05-17T14:51:10.512Z,102349.31
2023-05-17T14:53:39.723Z,102350.78
2023-05-17T14:56:09.023Z,102352.31
2023-05-17T14:58:38.100Z,102356.88
2023-05-17T15:01:09.174Z,102342.78
2023-05-17T15:03:39.126Z,102356.38
2023-05-17T15:06:11.101Z,102371.94
2023-05-17T15:08:41.128Z,102363.72
2023-05-17T15:11:11.138Z,102365.25
2023-05-17T15:13:40.241Z,102357.38
2023-05-17T15:16:12.099Z,102372.53
2023-05-17T15:18:41.439Z,102369.44
2023-05-17T15:21:11.377Z,102365.84
2023-05-17T15:23:40.524Z,102365.59
2023-05-17T15:26:09.622Z,102371.84
2023-05-17T15:28:38.742Z,102376.34
2023-05-17T15:31:10.613Z,102375.25
2023-05-17T15:33:43.109Z,102368.97
2023-05-17T15:36:13.862Z,102367.84
2023-05-17T15:38:43.080Z,102369.72
2023-05-17T15:41:15.182Z,102362.50
2023-05-17T15:43:44.555Z,102354.78
2023-05-17T15:46:13.683Z,102356.03
2023-05-17T15:48:44.219Z,102366.63
2023-05-17T15:51:13.500Z,102373.53
2023-05-17T15:53:42.603Z,102370.25
2023-05-17T15:56:11.956Z,102364.41
2023-05-17T15:58:41.277Z,102372.59
2023-05-17T16:01:10.475Z,102371.81
2023-05-17T16:03:39.775Z,102375.22
2023-05-17T16:06:10.411Z,102376.38
2023-05-17T16:08:39.549Z,102384.41
2023-05-17T16:11:09.920Z,102367.00
2023-05-17T16:13:39.159Z,102385.38
2023-05-17T16:16:08.574Z,102391.22
2023-05-17T16:18:38.079Z,102388.53
2023-05-17T16:21:08.919Z,102385.78
2023-05-17T16:23:38.042Z,102393.22
2023-05-17T16:26:07.214Z,102398.09
2023-05-17T16:28:36.949Z,102396.94
2023-05-17T16:31:06.532Z,102395.25
2023-05-17T16:33:36.141Z,102407.75
2023-05-17T16:36:05.974Z,102406.47
2023-05-17T16:38:36.505Z,102413.00
2023-05-17T16:41:06.011Z,102406.56
2023-05-17T16:43:35.181Z,102413.25
2023-05-17T16:46:04.382Z,102412.19
2023-05-17T16:48:33.559Z,102416.56
2023-05-17T16:51:02.630Z,102416.38
2023-05-17T16:53:31.768Z,102414.09
2023-05-17T16:56:02.265Z,102415.50
2023-05-17T16:58:31.421Z,102422.06
2023-05-17T17:01:00.533Z,102427.59
2023-05-17T17:03:29.851Z,102422.63
2023-05-17T17:05:58.990Z,102437.16
2023-05-17T17:08:28.077Z,102432.56
2023-05-17T17:10:57.201Z,102434.34
2023-05-17T17:13:27.694Z,102442.66
2023-05-17T17:15:56.890Z,102434.06
2023-05-17T17:18:26.142Z,102436.50
2023-05-17T17:20:55.450Z,102444.00
2023-05-17T17:23:24.778Z,102446.44
2023-05-17T17:25:53.878Z,102446.38
2023-05-17T17:28:22.977Z,102454.28
2023-05-17T17:30:53.627Z,102444.44
2023-05-17T17:33:22.795Z,102450.25
2023-05-17T17:35:51.937Z,102451.50
2023-05-17T17:38:21.106Z,102456.31
2023-05-17T17:40:50.437Z,102452.22
2023-05-17T17:43:19.727Z,102450.72
2023-05-17T17:45:48.887Z,102460.06
2023-05-17T17:48:19.360Z,102464.03
2023-05-17T17:50:48.521Z,102465.63
2023-05-17T17:53:18.245Z,102472.13
2023-05-17T17:55:47.393Z,102472.84
2023-05-17T17:58:16.745Z,102467.00
2023-05-17T18:00:45.863Z,102468.50
2023-05-17T18:03:15.078Z,102481.63
2023-05-17T18:05:45.754Z,102484.84
2023-05-17T18:08:14.835Z,102488.28
2023-05-17T18:10:44.019Z,102483.00
2023-05-17T18:13:13.187Z,102485.25
2023-05-17T18:15:42.305Z,102484.25
2023-05-17T18:18:11.844Z,102494.91
2023-05-17T18:20:41.107Z,102495.84
2023-05-17T18:23:11.563Z,102501.69
2023-05-17T18:25:40.905Z,102500.91
2023-05-17T18:28:10.516Z,102500.69
2023-05-17T18:30:40.061Z,102502.09
2023-05-17T18:33:09.368Z,102507.69
2023-05-17T18:35:38.499Z,102513.13
2023-05-17T18:38:07.697Z,102500.00
2023-05-17T18:40:38.204Z,102507.59
2023-05-17T18:43:07.380Z,102506.06
2023-05-17T18:45:37.679Z,102511.41
2023-05-17T18:48:06.840Z,102516.66
2023-05-17T18:50:35.980Z,102511.16
2023-05-17T18:53:13.146Z,102510.91
2023-05-17T18:55:43.645Z,102516.91
2023-05-17T18:58:12.801Z,102517.31
2023-05-17T19:00:42.140Z,102515.72
2023-05-17T19:03:11.248Z,102518.84
2023-05-17T19:05:40.504Z,102521.53
2023-05-17T19:08:09.661Z,102523.06
2023-05-17T19:10:38.758Z,102522.56
2023-05-17T19:13:09.355Z,102522.06
2023-05-17T19:15:38.511Z,102518.63
2023-05-17T19:18:07.765Z,102522.63
2023-05-17T19:20:37.089Z,102521.22
2023-05-17T19:23:06.858Z,102522.72
2023-05-17T19:25:36.089Z,102515.34
2023-05-17T19:28:05.384Z,102518.41
2023-05-17T19:30:36.119Z,102522.84
2023-05-17T19:33:05.561Z,102523.13
2023-05-17T19:35:36.976Z,102524.72
2023-05-17T19:38:06.113Z,102523.03
2023-05-17T19:40:35.578Z,102532.31
2023-05-17T19:43:04.695Z,102538.06
2023-05-17T19:45:35.243Z,102530.72
2023-05-17T19:48:07.270Z,102522.13
2023-05-17T19:50:36.919Z,102529.06
2023-05-17T19:53:06.047Z,102530.91
2023-05-17T19:55:36.381Z,102526.63
2023-05-17T19:58:05.589Z,102524.84
2023-05-17T20:00:38.022Z,102531.25
2023-05-17T20:03:07.352Z,102526.53
2023-05-17T20:05:36.811Z,102539.88
2023-05-17T20:08:08.083Z,102528.38
2023-05-17T20:10:37.943Z,102536.53
2023-05-17T20:13:07.127Z,102534.78
2023-05-17T20:15:37.774Z,102543.81
2023-05-17T20:18:09.013Z,102539.31
2023-05-17T20:20:38.337Z,102535.41
2023-05-17T20:23:08.672Z,102537.34
2023-05-17T20:25:39.772Z,102536.94
2023-05-17T20:28:08.972Z,102539.03
2023-05-17T20:30:41.058Z,102538.34
2023-05-17T20:33:10.809Z,102546.72
2023-05-17T20:35:40.036Z,102556.50
2023-05-17T20:38:09.136Z,102549.19
2023-05-17T20:40:38.406Z,102553.19
2023-05-17T20:43:09.882Z,102545.59
2023-05-17T20:45:40.411Z,102551.13
2023-05-17T20:48:09.623Z,102544.91
2023-05-17T20:50:39.102Z,102543.13
2023-05-17T20:53:10.340Z,102544.28
2023-05-17T20:55:39.686Z,102553.38
2023-05-17T20:58:08.865Z,102554.75
2023-05-17T21:00:39.631Z,102555.91
2023-05-17T21:03:10.948Z,102557.13
2023-05-17T21:05:40.431Z,102556.59
2023-05-17T21:08:12.743Z,102553.38
2023-05-17T21:10:42.789Z,102561.50
2023-05-17T21:13:14.382Z,102552.91
2023-05-17T21:15:45.389Z,102558.75
2023-05-17T21:18:15.076Z,102561.53
2023-05-17T21:20:45.392Z,102554.91
2023-05-17T21:23:14.647Z,102549.81
2023-05-17T21:25:46.716Z,102551.75
2023-05-17T21:28:16.610Z,102561.91
2023-05-17T21:30:47.283Z,102555.94
2023-05-17T21:33:16.587Z,102555.25
2023-05-17T21:35:45.918Z,102556.97
2023-05-17T21:38:15.154Z,102557.66
2023-05-17T21:40:45.588Z,102549.94
2023-05-17T21:43:14.703Z,102549.53
2023-05-17T21:45:45.213Z,102545.53
2023-05-17T21:48:15.756Z,102556.88
2023-05-17T21:50:45.169Z,102552.63
2023-05-17T21:53:14.428Z,102554.13
2023-05-17T21:55:56.890Z,102558.78
2023-05-17T21:58:32.578Z,102563.31
2023-05-17T22:01:02.220Z,102558.78
2023-05-17T22:03:33.055Z,102555.06
2023-05-17T22:06:02.687Z,102558.38
2023-05-17T22:08:32.200Z,102558.53
2023-05-17T22:11:01.333Z,102558.94
2023-05-17T22:13:32.664Z,102560.78
2023-05-17T22:16:01.977Z,102561.84
2023-05-17T22:18:32.561Z,102556.19
2023-05-17T22:21:02.057Z,102569.38
2023-05-17T22:23:31.276Z,102561.75
2023-05-17T22:26:00.691Z,102567.41
2023-05-17T22:28:29.872Z,102571.16
2023-05-17T22:30:58.982Z,102568.47
2023-05-17T22:33:29.578Z,102570.53
2023-05-17T22:36:02.431Z,102576.38
2023-05-17T22:38:31.530Z,102570.94
2023-05-17T22:41:00.679Z,102570.16
2023-05-17T22:43:30.084Z,102576.94
2023-05-17T22:45:59.890Z,102573.19
2023-05-17T22:48:30.336Z,102577.06
2023-05-17T22:51:01.846Z,102579.78
2023-05-17T22:53:31.279Z,102577.28
2023-05-17T22:56:00.553Z,102581.03
2023-05-17T22:58:29.651Z,102583.91
2023-05-17T23:00:58.835Z,102597.41
2023-05-17T23:03:28.084Z,102597.06
2023-05-17T23:06:03.001Z,102603.34
2023-05-17T23:08:33.850Z,102595.00
2023-05-17T23:11:04.866Z,102594.00
2023-05-17T23:13:34.279Z,102596.94
2023-05-17T23:16:04.249Z,102591.25
2023-05-17T23:18:33.508Z,102590.72
2023-05-17T23:21:03.750Z,102601.69
2023-05-17T23:23:34.288Z,102592.00
2023-05-17T23:26:05.862Z,102595.72
2023-05-17T23:28:35.454Z,102588.88
2023-05-17T23:31:05.937Z,102597.59
2023-05-17T23:33:35.156Z,102592.56
2023-05-17T23:36:04.260Z,102601.06
2023-05-17T23:38:34.710Z,102602.91
2023-05-17T23:41:05.320Z,102604.13
2023-05-17T23:43:35.400Z,102603.69
2023-05-17T23:46:05.446Z,102602.53
2023-05-17T23:48:34.624Z,102605.28
2023-05-17T23:51:03.794Z,102605.78
2023-05-17T23:53:34.492Z,102610.38
2023-05-17T23:56:04.832Z,102600.44
2023-05-17T23:58:33.993Z,102609.03
